createdAt,value
2023-05-05T00:00:43.916Z,95113.00
2023-05-05T00:01:43.953Z,95113.00
2023-05-05T00:02:44.099Z,95117.00
2023-05-05T00:03:44.150Z,95115.00
2023-05-05T00:04:44.127Z,95113.00
2023-05-05T00:05:44.153Z,95111.00
2023-05-05T00:06:44.255Z,95115.00
2023-05-05T00:07:44.284Z,95115.00
2023-05-05T00:08:44.378Z,95117.00
2023-05-05T00:09:44.416Z,95119.00
2023-05-05T00:10:44.489Z,95117.00
2023-05-05T00:11:44.530Z,95119.00
2023-05-05T00:12:44.655Z,95117.00
2023-05-05T00:13:44.777Z,95119.00
2023-05-05T00:14:44.687Z,95117.00
2023-05-05T00:15:44.755Z,95113.00
2023-05-05T00:16:44.884Z,95113.00
2023-05-05T00:17:44.875Z,95115.00
2023-05-05T00:18:44.876Z,95115.00
2023-05-05T00:19:44.953Z,95117.00
2023-05-05T00:20:44.993Z,95119.00
2023-05-05T00:21:45.044Z,95119.00
2023-05-05T00:22:45.074Z,95121.00
2023-05-05T00:23:45.152Z,95119.00
2023-05-05T00:24:45.202Z,95117.00
2023-05-05T00:25:45.242Z,95119.00
2023-05-05T00:26:45.316Z,95117.00
2023-05-05T00:27:45.311Z,95115.00
2023-05-05T00:28:45.365Z,95119.00
2023-05-05T00:29:45.395Z,95121.00
2023-05-05T00:30:45.441Z,95119.00
2023-05-05T00:31:45.488Z,95115.00
2023-05-05T00:32:45.550Z,95117.00
2023-05-05T00:33:45.528Z,95117.00
2023-05-05T00:34:45.584Z,95115.00
2023-05-05T00:35:45.631Z,95121.00
2023-05-05T00:36:45.645Z,95119.00
2023-05-05T00:37:45.704Z,95119.00
2023-05-05T00:38:45.733Z,95121.00
2023-05-05T00:39:45.819Z,95119.00
2023-05-05T00:40:45.830Z,95121.00
2023-05-05T00:41:45.880Z,95123.00
2023-05-05T00:42:45.955Z,95121.00
2023-05-05T00:43:45.956Z,95125.00
2023-05-05T00:44:46.051Z,95119.00
2023-05-05T00:45:46.048Z,95121.00
2023-05-05T00:46:46.179Z,95121.00
2023-05-05T00:47:46.198Z,95121.00
2023-05-05T00:48:46.143Z,95123.00
2023-05-05T00:49:46.191Z,95123.00
2023-05-05T00:50:46.208Z,95119.00
2023-05-05T00:51:46.192Z,95119.00
2023-05-05T00:52:46.207Z,95119.00
2023-05-05T00:53:46.260Z,95123.00
2023-05-05T00:54:46.259Z,95121.00
2023-05-05T00:55:46.279Z,95121.00
2023-05-05T00:56:46.247Z,95119.00
2023-05-05T00:57:46.249Z,95119.00
2023-05-05T00:58:46.307Z,95123.00
2023-05-05T00:59:46.259Z,95123.00
2023-05-05T01:00:46.260Z,95121.00
2023-05-05T01:01:46.418Z,95121.00
2023-05-05T01:02:46.403Z,95121.00
2023-05-05T01:03:46.397Z,95117.00
2023-05-05T01:04:46.331Z,95113.00
2023-05-05T01:05:46.332Z,95115.00
2023-05-05T01:06:46.337Z,95113.00
2023-05-05T01:07:46.377Z,95113.00
2023-05-05T01:08:46.360Z,95117.00
2023-05-05T01:09:46.359Z,95113.00
2023-05-05T01:10:46.373Z,95113.00
2023-05-05T01:11:46.416Z,95113.00
2023-05-05T01:12:46.421Z,95111.00
2023-05-05T01:13:46.438Z,95109.00
2023-05-05T01:14:46.391Z,95109.00
2023-05-05T01:15:46.420Z,95107.00
2023-05-05T01:16:46.406Z,95107.00
2023-05-05T01:17:46.424Z,95109.00
2023-05-05T01:18:46.413Z,95107.00
2023-05-05T01:19:46.388Z,95109.00
2023-05-05T01:20:46.412Z,95109.00
2023-05-05T01:21:46.436Z,95111.00
2023-05-05T01:22:46.368Z,95111.00
2023-05-05T01:23:46.413Z,95111.00
2023-05-05T01:24:46.416Z,95113.00
2023-05-05T01:25:46.444Z,95113.00
2023-05-05T01:26:46.378Z,95109.00
2023-05-05T01:27:46.387Z,95113.00
2023-05-05T01:28:46.380Z,95115.00
2023-05-05T01:29:46.408Z,95117.00
2023-05-05T01:30:46.376Z,95119.00
2023-05-05T01:31:46.403Z,95119.00
2023-05-05T01:32:46.380Z,95119.00
2023-05-05T01:33:46.384Z,95117.00
2023-05-05T01:34:46.382Z,95119.00
2023-05-05T01:35:46.397Z,95121.00
2023-05-05T01:36:46.336Z,95121.00
2023-05-05T01:37:46.361Z,95121.00
2023-05-05T01:38:46.346Z,95117.00
2023-05-05T01:39:46.352Z,95119.00
2023-05-05T01:40:46.381Z,95121.00
2023-05-05T01:41:46.376Z,95121.00
2023-05-05T01:42:46.377Z,95121.00
2023-05-05T01:43:46.369Z,95123.00
2023-05-05T01:44:46.361Z,95121.00
2023-05-05T01:45:46.379Z,95121.00
2023-05-05T01:46:46.374Z,95125.00
2023-05-05T01:47:46.401Z,95123.00
2023-05-05T01:48:46.400Z,95121.00
2023-05-05T01:49:46.401Z,95121.00
2023-05-05T01:50:46.366Z,95127.00
2023-05-05T01:51:46.375Z,95127.00
2023-05-05T01:52:46.377Z,95127.00
2023-05-05T01:53:46.352Z,95129.00
2023-05-05T01:54:46.368Z,95129.00
2023-05-05T01:55:46.381Z,95125.00
2023-05-05T01:56:46.387Z,95127.00
2023-05-05T01:57:46.400Z,95129.00
2023-05-05T01:58:46.401Z,95129.00
2023-05-05T01:59:46.400Z,95130.00
2023-05-05T02:00:46.391Z,95129.00
2023-05-05T02:01:46.471Z,95130.00
2023-05-05T02:02:46.585Z,95132.00
2023-05-05T02:03:46.417Z,95130.00
2023-05-05T02:04:46.474Z,95125.00
2023-05-05T02:05:46.431Z,95125.00
2023-05-05T02:06:46.441Z,95125.00
2023-05-05T02:07:46.454Z,95123.00
2023-05-05T02:08:46.451Z,95125.00
2023-05-05T02:09:46.457Z,95125.00
2023-05-05T02:10:46.484Z,95129.00
2023-05-05T02:11:46.466Z,95129.00
2023-05-05T02:12:46.538Z,95130.00
2023-05-05T02:13:46.538Z,95130.00
2023-05-05T02:14:46.509Z,95130.00
2023-05-05T02:15:46.519Z,95129.00
2023-05-05T02:16:46.517Z,95132.00
2023-05-05T02:17:46.558Z,95132.00
2023-05-05T02:18:46.524Z,95132.00
2023-05-05T02:19:46.553Z,95132.00
2023-05-05T02:20:46.553Z,95132.00
2023-05-05T02:21:46.550Z,95132.00
2023-05-05T02:22:46.560Z,95134.00
2023-05-05T02:23:46.551Z,95136.00
2023-05-05T02:24:46.580Z,95144.00
2023-05-05T02:25:46.587Z,95136.00
2023-05-05T02:26:46.580Z,95136.00
2023-05-05T02:27:46.601Z,95134.00
2023-05-05T02:28:46.613Z,95132.00
2023-05-05T02:29:46.587Z,95136.00
2023-05-05T02:30:46.611Z,95144.00
2023-05-05T02:31:46.707Z,95144.00
2023-05-05T02:32:46.742Z,95144.00
2023-05-05T02:33:46.626Z,95144.00
2023-05-05T02:34:46.641Z,95148.00
2023-05-05T02:35:46.662Z,95136.00
2023-05-05T02:36:46.643Z,95144.00
2023-05-05T02:37:46.669Z,95136.00
2023-05-05T02:38:46.670Z,95144.00
2023-05-05T02:39:46.678Z,95146.00
2023-05-05T02:40:46.697Z,95148.00
2023-05-05T02:41:46.674Z,95150.00
2023-05-05T02:42:46.790Z,95150.00
2023-05-05T02:43:46.766Z,95152.00
2023-05-05T02:44:46.776Z,95152.00
2023-05-05T02:45:46.742Z,95154.00
2023-05-05T02:46:46.857Z,95152.00
2023-05-05T02:47:46.854Z,95152.00
2023-05-05T02:48:46.807Z,95152.00
2023-05-05T02:49:46.821Z,95154.00
2023-05-05T02:50:46.809Z,95152.00
2023-05-05T02:51:46.839Z,95152.00
2023-05-05T02:52:46.831Z,95150.00
2023-05-05T02:53:46.874Z,95152.00
2023-05-05T02:54:46.853Z,95154.00
2023-05-05T02:55:46.879Z,95158.00
2023-05-05T02:56:46.905Z,95152.00
2023-05-05T02:57:46.901Z,95154.00
2023-05-05T02:58:46.899Z,95152.00
2023-05-05T02:59:47.029Z,95154.00
2023-05-05T03:00:46.928Z,95156.00
2023-05-05T03:01:46.970Z,95156.00
2023-05-05T03:02:47.039Z,95156.00
2023-05-05T03:03:47.141Z,95158.00
2023-05-05T03:04:47.011Z,95156.00
2023-05-05T03:05:47.021Z,95156.00
2023-05-05T03:06:47.033Z,95160.00
2023-05-05T03:07:47.029Z,95158.00
2023-05-05T03:08:47.083Z,95160.00
2023-05-05T03:09:47.097Z,95160.00
2023-05-05T03:10:47.099Z,95160.00
2023-05-05T03:11:47.091Z,95160.00
2023-05-05T03:12:47.220Z,95158.00
2023-05-05T03:13:47.136Z,95160.00
2023-05-05T03:14:47.184Z,95158.00
2023-05-05T03:15:47.151Z,95160.00
2023-05-05T03:16:47.254Z,95160.00
2023-05-05T03:17:47.274Z,95156.00
2023-05-05T03:18:47.261Z,95150.00
2023-05-05T03:19:47.250Z,95156.00
2023-05-05T03:20:47.341Z,95150.00
2023-05-05T03:21:47.328Z,95154.00
2023-05-05T03:22:47.341Z,95154.00
2023-05-05T03:23:47.342Z,95150.00
2023-05-05T03:24:47.343Z,95152.00
2023-05-05T03:25:47.384Z,95152.00
2023-05-05T03:26:47.407Z,95150.00
2023-05-05T03:27:47.402Z,95152.00
2023-05-05T03:28:47.428Z,95152.00
2023-05-05T03:29:47.437Z,95152.00
2023-05-05T03:30:47.490Z,95154.00
2023-05-05T03:31:47.513Z,95154.00
2023-05-05T03:32:47.540Z,95150.00
2023-05-05T03:33:47.557Z,95152.00
2023-05-05T03:34:47.555Z,95152.00
2023-05-05T03:35:47.563Z,95152.00
2023-05-05T03:36:47.657Z,95156.00
2023-05-05T03:37:47.630Z,95158.00
2023-05-05T03:38:47.653Z,95158.00
2023-05-05T03:39:47.677Z,95156.00
2023-05-05T03:40:47.745Z,95156.00
2023-05-05T03:41:47.706Z,95156.00
2023-05-05T03:42:47.780Z,95156.00
2023-05-05T03:43:47.786Z,95156.00
2023-05-05T03:44:47.830Z,95158.00
2023-05-05T03:45:47.867Z,95158.00
2023-05-05T03:46:47.844Z,95156.00
2023-05-05T03:47:47.934Z,95156.00
2023-05-05T03:48:47.917Z,95158.00
2023-05-05T03:49:47.966Z,95158.00
2023-05-05T03:50:48.026Z,95158.00
2023-05-05T03:51:47.996Z,95158.00
2023-05-05T03:52:48.047Z,95156.00
2023-05-05T03:53:48.060Z,95158.00
2023-05-05T03:54:48.104Z,95156.00
2023-05-05T03:55:48.104Z,95156.00
2023-05-05T03:56:48.157Z,95154.00
2023-05-05T03:57:48.190Z,95154.00
2023-05-05T03:58:48.209Z,95152.00
2023-05-05T03:59:48.240Z,95152.00
2023-05-05T04:00:48.310Z,95152.00
2023-05-05T04:01:48.290Z,95166.00
2023-05-05T04:02:48.399Z,95160.00
2023-05-05T04:03:48.410Z,95162.00
2023-05-05T04:04:48.382Z,95158.00
2023-05-05T04:05:48.457Z,95162.00
2023-05-05T04:06:48.494Z,95162.00
2023-05-05T04:07:48.577Z,95164.00
2023-05-05T04:08:48.607Z,95166.00
2023-05-05T04:09:48.673Z,95164.00
2023-05-05T04:10:48.744Z,95164.00
2023-05-05T04:11:48.816Z,95166.00
2023-05-05T04:12:48.893Z,95168.00
2023-05-05T04:13:48.886Z,95168.00
2023-05-05T04:14:48.977Z,95172.00
2023-05-05T04:15:49.089Z,95172.00
2023-05-05T04:16:49.093Z,95170.00
2023-05-05T04:17:49.141Z,95170.00
2023-05-05T04:18:49.172Z,95172.00
2023-05-05T04:19:49.215Z,95174.00
2023-05-05T04:20:49.236Z,95172.00
2023-05-05T04:21:49.314Z,95172.00
2023-05-05T04:22:51.426Z,95170.00
2023-05-05T04:23:49.412Z,95172.00
2023-05-05T04:24:49.334Z,95172.00
2023-05-05T04:25:49.337Z,95174.00
2023-05-05T04:26:49.344Z,95170.00
2023-05-05T04:27:49.331Z,95172.00
2023-05-05T04:28:49.330Z,95174.00
2023-05-05T04:29:49.330Z,95174.00
2023-05-05T04:30:49.306Z,95160.00
2023-05-05T04:31:49.387Z,95160.00
2023-05-05T04:32:49.367Z,95160.00
2023-05-05T04:33:49.305Z,95164.00
2023-05-05T04:34:49.274Z,95166.00
2023-05-05T04:35:49.280Z,95164.00
2023-05-05T04:36:49.260Z,95166.00
2023-05-05T04:37:49.265Z,95168.00
2023-05-05T04:38:49.261Z,95166.00
2023-05-05T04:39:49.241Z,95164.00
2023-05-05T04:40:49.258Z,95170.00
2023-05-05T04:41:49.256Z,95168.00
2023-05-05T04:42:49.231Z,95174.00
2023-05-05T04:43:49.210Z,95174.00
2023-05-05T04:44:49.238Z,95174.00
2023-05-05T04:45:49.190Z,95172.00
2023-05-05T04:46:49.201Z,95176.00
2023-05-05T04:47:49.231Z,95174.00
2023-05-05T04:48:49.194Z,95174.00
2023-05-05T04:49:49.166Z,95174.00
2023-05-05T04:50:49.170Z,95176.00
2023-05-05T04:51:49.184Z,95172.00
2023-05-05T04:52:51.302Z,95170.00
2023-05-05T04:53:49.135Z,95172.00
2023-05-05T04:54:49.143Z,95170.00
2023-05-05T04:55:49.128Z,95170.00
2023-05-05T04:56:49.109Z,95172.00
2023-05-05T04:57:49.077Z,95174.00
2023-05-05T04:58:49.103Z,95176.00
2023-05-05T04:59:49.063Z,95174.00
2023-05-05T05:00:49.096Z,95174.00
2023-05-05T05:01:49.086Z,95174.00
2023-05-05T05:02:49.189Z,95178.00
2023-05-05T05:03:49.123Z,95178.00
2023-05-05T05:04:49.020Z,95182.00
2023-05-05T05:05:49.092Z,95183.00
2023-05-05T05:06:49.062Z,95183.00
2023-05-05T05:07:49.016Z,95183.00
2023-05-05T05:08:49.037Z,95183.00
2023-05-05T05:09:49.023Z,95182.00
2023-05-05T05:10:48.991Z,95182.00
2023-05-05T05:11:48.991Z,95183.00
2023-05-05T05:12:49.061Z,95183.00
2023-05-05T05:13:49.021Z,95185.00
2023-05-05T05:14:48.980Z,95187.00
2023-05-05T05:15:49.010Z,95189.00
2023-05-05T05:16:49.056Z,95189.00
2023-05-05T05:17:49.000Z,95187.00
2023-05-05T05:18:48.968Z,95187.00
2023-05-05T05:19:48.946Z,95187.00
2023-05-05T05:20:48.972Z,95185.00
2023-05-05T05:21:48.945Z,95183.00
2023-05-05T05:22:48.941Z,95183.00
2023-05-05T05:23:48.922Z,95183.00
2023-05-05T05:24:48.938Z,95182.00
2023-05-05T05:25:48.939Z,95183.00
2023-05-05T05:26:48.897Z,95183.00
2023-05-05T05:27:58.506Z,95183.00
2023-05-05T05:28:49.949Z,95183.00
2023-05-05T05:29:48.868Z,95183.00
2023-05-05T05:30:48.860Z,95183.00
2023-05-05T05:31:48.919Z,95185.00
2023-05-05T05:32:48.921Z,95180.00
2023-05-05T05:33:48.886Z,95185.00
2023-05-05T05:34:49.003Z,95183.00
2023-05-05T05:35:48.871Z,95183.00
2023-05-05T05:36:48.863Z,95183.00
2023-05-05T05:37:48.837Z,95183.00
2023-05-05T05:38:49.004Z,95185.00
2023-05-05T05:39:48.837Z,95183.00
2023-05-05T05:40:48.796Z,95183.00
2023-05-05T05:41:49.013Z,95187.00
2023-05-05T05:42:49.040Z,95185.00
2023-05-05T05:43:48.759Z,95185.00
2023-05-05T05:44:48.827Z,95183.00
2023-05-05T05:45:48.847Z,95185.00
2023-05-05T05:46:48.894Z,95183.00
2023-05-05T05:47:48.978Z,95187.00
2023-05-05T05:48:48.949Z,95201.00
2023-05-05T05:49:48.984Z,95203.00
2023-05-05T05:50:49.000Z,95199.00
2023-05-05T05:51:49.001Z,95201.00
2023-05-05T05:52:49.020Z,95201.00
2023-05-05T05:53:49.083Z,95199.00
2023-05-05T05:54:49.147Z,95197.00
2023-05-05T05:55:49.195Z,95199.00
2023-05-05T05:56:49.246Z,95201.00
2023-05-05T05:57:49.317Z,95201.00
2023-05-05T05:58:49.329Z,95193.00
2023-05-05T05:59:49.383Z,95189.00
2023-05-05T06:00:49.473Z,95189.00
2023-05-05T06:01:49.449Z,95191.00
2023-05-05T06:02:49.610Z,95191.00
2023-05-05T06:03:49.703Z,95193.00
2023-05-05T06:04:49.566Z,95195.00
2023-05-05T06:05:49.592Z,95193.00
2023-05-05T06:06:49.633Z,95193.00
2023-05-05T06:07:49.646Z,95191.00
2023-05-05T06:08:50.011Z,95193.00
2023-05-05T06:09:49.668Z,95195.00
2023-05-05T06:10:49.730Z,95197.00
2023-05-05T06:11:49.734Z,95197.00
2023-05-05T06:12:49.798Z,95193.00
2023-05-05T06:13:49.745Z,95195.00
2023-05-05T06:14:49.742Z,95197.00
2023-05-05T06:15:49.807Z,95197.00
2023-05-05T06:16:49.744Z,95195.00
2023-05-05T06:17:49.764Z,95195.00
2023-05-05T06:18:49.767Z,95195.00
2023-05-05T06:19:49.743Z,95191.00
2023-05-05T06:20:49.737Z,95191.00
2023-05-05T06:21:49.792Z,95191.00
2023-05-05T06:22:49.832Z,95187.00
2023-05-05T06:23:49.852Z,95193.00
2023-05-05T06:24:49.871Z,95191.00
2023-05-05T06:25:49.970Z,95189.00
2023-05-05T06:26:49.958Z,95185.00
2023-05-05T06:27:50.068Z,95187.00
2023-05-05T06:28:50.096Z,95185.00
2023-05-05T06:29:50.153Z,95193.00
2023-05-05T06:30:50.296Z,95195.00
2023-05-05T06:31:50.380Z,95191.00
2023-05-05T06:32:50.301Z,95182.00
2023-05-05T06:33:50.288Z,95182.00
2023-05-05T06:34:50.311Z,95180.00
2023-05-05T06:35:50.939Z,95178.00
2023-05-05T06:36:50.329Z,95176.00
2023-05-05T06:37:50.353Z,95178.00
2023-05-05T06:38:50.347Z,95170.00
2023-05-05T06:39:50.432Z,95170.00
2023-05-05T06:40:50.458Z,95170.00
2023-05-05T06:41:50.455Z,95170.00
2023-05-05T06:42:50.507Z,95168.00
2023-05-05T06:43:50.548Z,95168.00
2023-05-05T06:44:50.605Z,95164.00
2023-05-05T06:45:50.680Z,95164.00
2023-05-05T06:46:50.715Z,95162.00
2023-05-05T06:47:50.761Z,95158.00
2023-05-05T06:48:50.740Z,95162.00
2023-05-05T06:49:50.807Z,95162.00
2023-05-05T06:50:50.848Z,95158.00
2023-05-05T06:51:50.918Z,95156.00
2023-05-05T06:52:50.929Z,95156.00
2023-05-05T06:53:50.986Z,95156.00
2023-05-05T06:54:51.032Z,95156.00
2023-05-05T06:55:51.053Z,95156.00
2023-05-05T06:56:51.188Z,95158.00
2023-05-05T06:57:51.172Z,95156.00
2023-05-05T06:58:51.207Z,95158.00
2023-05-05T06:59:51.239Z,95160.00
2023-05-05T07:00:51.350Z,95158.00
2023-05-05T07:01:51.336Z,95156.00
2023-05-05T07:02:51.481Z,95158.00
2023-05-05T07:03:51.421Z,95156.00
2023-05-05T07:04:51.537Z,95158.00
2023-05-05T07:05:51.526Z,95156.00
2023-05-05T07:06:51.536Z,95154.00
2023-05-05T07:07:52.305Z,95154.00
2023-05-05T07:08:51.645Z,95154.00
2023-05-05T07:09:51.653Z,95150.00
2023-05-05T07:10:51.783Z,95148.00
2023-05-05T07:11:51.886Z,95150.00
2023-05-05T07:12:51.925Z,95152.00
2023-05-05T07:13:51.827Z,95150.00
2023-05-05T07:14:51.847Z,95148.00
2023-05-05T07:15:51.975Z,95150.00
2023-05-05T07:16:52.002Z,95148.00
2023-05-05T07:17:52.238Z,95144.00
2023-05-05T07:18:51.960Z,95144.00
2023-05-05T07:19:52.065Z,95134.00
2023-05-05T07:20:52.042Z,95136.00
2023-05-05T07:21:52.077Z,95144.00
2023-05-05T07:22:52.106Z,95136.00
2023-05-05T07:23:52.102Z,95130.00
2023-05-05T07:24:52.188Z,95134.00
2023-05-05T07:25:52.159Z,95130.00
2023-05-05T07:26:52.192Z,95132.00
2023-05-05T07:27:52.194Z,95129.00
2023-05-05T07:28:52.314Z,95127.00
2023-05-05T07:29:52.312Z,95127.00
2023-05-05T07:30:52.321Z,95130.00
2023-05-05T07:31:52.406Z,95127.00
2023-05-05T07:32:52.409Z,95121.00
2023-05-05T07:33:52.437Z,95121.00
2023-05-05T07:34:52.503Z,95121.00
2023-05-05T07:35:52.499Z,95119.00
2023-05-05T07:36:52.553Z,95119.00
2023-05-05T07:37:52.553Z,95115.00
2023-05-05T07:38:52.541Z,95115.00
2023-05-05T07:39:52.507Z,95115.00
2023-05-05T07:40:52.523Z,95115.00
2023-05-05T07:41:52.475Z,95111.00
2023-05-05T07:42:52.529Z,95117.00
2023-05-05T07:43:52.574Z,95117.00
2023-05-05T07:44:52.630Z,95115.00
2023-05-05T07:45:52.691Z,95115.00
2023-05-05T07:46:52.655Z,95113.00
2023-05-05T07:47:52.858Z,95113.00
2023-05-05T07:48:52.712Z,95109.00
2023-05-05T07:49:52.693Z,95107.00
2023-05-05T07:50:53.003Z,95107.00
2023-05-05T07:51:52.705Z,95103.00
2023-05-05T07:52:59.340Z,95107.00
2023-05-05T07:53:53.711Z,95101.00
2023-05-05T07:54:52.717Z,95105.00
2023-05-05T07:55:52.707Z,95103.00
2023-05-05T07:56:52.695Z,95101.00
2023-05-05T07:57:52.695Z,95101.00
2023-05-05T07:58:52.705Z,95099.00
2023-05-05T07:59:52.689Z,95097.00
2023-05-05T08:00:52.819Z,95101.00
2023-05-05T08:01:54.876Z,95095.00
2023-05-05T08:02:52.852Z,95097.00
2023-05-05T08:03:52.881Z,95097.00
2023-05-05T08:04:52.880Z,95097.00
2023-05-05T08:05:52.955Z,95097.00
2023-05-05T08:06:52.975Z,95095.00
2023-05-05T08:07:53.025Z,95093.00
2023-05-05T08:08:53.119Z,95095.00
2023-05-05T08:09:53.134Z,95095.00
2023-05-05T08:10:53.463Z,95091.00
2023-05-05T08:11:53.218Z,95093.00
2023-05-05T08:12:53.290Z,95091.00
2023-05-05T08:13:53.279Z,95091.00
2023-05-05T08:14:53.383Z,95089.00
2023-05-05T08:15:53.460Z,95089.00
2023-05-05T08:16:53.504Z,95087.00
2023-05-05T08:17:53.527Z,95085.00
2023-05-05T08:18:53.573Z,95085.00
2023-05-05T08:19:53.618Z,95085.00
2023-05-05T08:20:53.692Z,95083.00
2023-05-05T08:21:53.738Z,95082.00
2023-05-05T08:22:53.763Z,95080.00
2023-05-05T08:23:53.809Z,95083.00
2023-05-05T08:24:53.908Z,95080.00
2023-05-05T08:25:53.902Z,95066.00
2023-05-05T08:26:53.951Z,95062.00
2023-05-05T08:27:54.026Z,95068.00
2023-05-05T08:28:54.025Z,95064.00
2023-05-05T08:29:54.038Z,95062.00
2023-05-05T08:30:54.053Z,95060.00
2023-05-05T08:31:54.154Z,95060.00
2023-05-05T08:32:54.237Z,95054.00
2023-05-05T08:33:54.206Z,95054.00
2023-05-05T08:34:54.208Z,95052.00
2023-05-05T08:35:54.285Z,95052.00
2023-05-05T08:36:54.360Z,95052.00
2023-05-05T08:37:56.057Z,95050.00
2023-05-05T08:38:54.429Z,95050.00
2023-05-05T08:39:54.366Z,95044.00
2023-05-05T08:40:54.370Z,95042.00
2023-05-05T08:41:54.386Z,95042.00
2023-05-05T08:42:54.379Z,95038.00
2023-05-05T08:43:54.355Z,95036.00
2023-05-05T08:44:54.344Z,95036.00
2023-05-05T08:45:54.318Z,95033.00
2023-05-05T08:46:54.376Z,95033.00
2023-05-05T08:47:54.336Z,95031.00
2023-05-05T08:48:54.355Z,95031.00
2023-05-05T08:49:54.295Z,95031.00
2023-05-05T08:50:54.294Z,95025.00
2023-05-05T08:51:54.295Z,95029.00
2023-05-05T08:52:54.352Z,95025.00
2023-05-05T08:53:54.270Z,95027.00
2023-05-05T08:54:54.239Z,95025.00
2023-05-05T08:55:54.250Z,95025.00
2023-05-05T08:56:54.245Z,95023.00
2023-05-05T08:57:54.266Z,95023.00
2023-05-05T08:58:54.245Z,95021.00
2023-05-05T08:59:54.289Z,95023.00
2023-05-05T09:00:54.263Z,95021.00
2023-05-05T09:01:54.363Z,95019.00
2023-05-05T09:02:54.329Z,95017.00
2023-05-05T09:03:54.205Z,95017.00
2023-05-05T09:04:54.265Z,95015.00
2023-05-05T09:05:54.219Z,95015.00
2023-05-05T09:06:54.310Z,95013.00
2023-05-05T09:07:54.333Z,95009.00
2023-05-05T09:08:54.401Z,95013.00
2023-05-05T09:09:54.456Z,95009.00
2023-05-05T09:10:54.441Z,95011.00
2023-05-05T09:11:54.439Z,95007.00
2023-05-05T09:12:54.566Z,95005.00
2023-05-05T09:13:54.587Z,95007.00
2023-05-05T09:14:54.574Z,95001.00
2023-05-05T09:15:54.589Z,95001.00
2023-05-05T09:16:54.757Z,94999.00
2023-05-05T09:17:54.925Z,94997.00
2023-05-05T09:18:54.680Z,94993.00
2023-05-05T09:19:54.703Z,94993.00
2023-05-05T09:20:54.685Z,94991.00
2023-05-05T09:21:54.808Z,94987.00
2023-05-05T09:22:54.735Z,94989.00
2023-05-05T09:23:55.105Z,94989.00
2023-05-05T09:24:54.813Z,94985.00
2023-05-05T09:25:54.848Z,94985.00
2023-05-05T09:26:54.869Z,94987.00
2023-05-05T09:27:54.872Z,94985.00
2023-05-05T09:28:54.837Z,94983.00
2023-05-05T09:29:54.821Z,94980.00
2023-05-05T09:30:54.874Z,94980.00
2023-05-05T09:31:54.839Z,94978.00
2023-05-05T09:32:54.858Z,94976.00
2023-05-05T09:33:54.845Z,94978.00
2023-05-05T09:34:54.825Z,94978.00
2023-05-05T09:35:54.877Z,94974.00
2023-05-05T09:36:54.913Z,94972.00
2023-05-05T09:37:54.834Z,94972.00
2023-05-05T09:38:54.833Z,94974.00
2023-05-05T09:39:54.850Z,94974.00
2023-05-05T09:40:54.844Z,94974.00
2023-05-05T09:41:54.866Z,94968.00
2023-05-05T09:42:54.916Z,94966.00
2023-05-05T09:43:54.981Z,94964.00
2023-05-05T09:44:55.405Z,94962.00
2023-05-05T09:45:55.094Z,94960.00
2023-05-05T09:46:55.150Z,94958.00
2023-05-05T09:47:59.797Z,94958.00
2023-05-05T09:48:56.205Z,94960.00
2023-05-05T09:49:55.207Z,94960.00
2023-05-05T09:50:55.185Z,94960.00
2023-05-05T09:51:55.185Z,94960.00
2023-05-05T09:52:55.156Z,94954.00
2023-05-05T09:53:55.140Z,94954.00
2023-05-05T09:54:55.148Z,94952.00
2023-05-05T09:55:55.166Z,94952.00
2023-05-05T09:56:55.091Z,94954.00
2023-05-05T09:57:55.278Z,94952.00
2023-05-05T09:58:56.253Z,94950.00
2023-05-05T09:59:55.292Z,94950.00
2023-05-05T10:00:55.357Z,94948.00
2023-05-05T10:01:55.458Z,94946.00
2023-05-05T10:02:55.539Z,94946.00
2023-05-05T10:03:55.533Z,94944.00
2023-05-05T10:04:55.606Z,94942.00
2023-05-05T10:05:55.710Z,94944.00
2023-05-05T10:06:55.714Z,94938.00
2023-05-05T10:07:55.742Z,94936.00
2023-05-05T10:08:55.832Z,94938.00
2023-05-05T10:09:55.831Z,94936.00
2023-05-05T10:10:55.861Z,94934.00
2023-05-05T10:11:55.920Z,94934.00
2023-05-05T10:12:55.937Z,94931.00
2023-05-05T10:13:55.937Z,94927.00
2023-05-05T10:14:56.000Z,94929.00
2023-05-05T10:15:56.120Z,94927.00
2023-05-05T10:16:56.060Z,94923.00
2023-05-05T10:18:06.038Z,94921.00
2023-05-05T10:18:57.151Z,94915.00
2023-05-05T10:19:56.032Z,94915.00
2023-05-05T10:20:56.084Z,94915.00
2023-05-05T10:21:56.015Z,94915.00
2023-05-05T10:22:56.059Z,94911.00
2023-05-05T10:23:56.058Z,94913.00
2023-05-05T10:24:56.097Z,94911.00
2023-05-05T10:25:56.049Z,94909.00
2023-05-05T10:26:55.990Z,94907.00
2023-05-05T10:27:56.013Z,94907.00
2023-05-05T10:28:56.039Z,94907.00
2023-05-05T10:29:55.985Z,94903.00
2023-05-05T10:30:55.975Z,94907.00
2023-05-05T10:31:56.015Z,94903.00
2023-05-05T10:33:05.098Z,94901.00
2023-05-05T10:33:57.044Z,94899.00
2023-05-05T10:34:55.934Z,94893.00
2023-05-05T10:35:56.016Z,94895.00
2023-05-05T10:36:55.970Z,94891.00
2023-05-05T10:37:55.989Z,94880.00
2023-05-05T10:38:55.945Z,94878.00
2023-05-05T10:39:55.981Z,94878.00
2023-05-05T10:40:55.979Z,94874.00
2023-05-05T10:41:55.907Z,94870.00
2023-05-05T10:42:55.905Z,94870.00
2023-05-05T10:43:55.917Z,94870.00
2023-05-05T10:44:55.916Z,94868.00
2023-05-05T10:45:55.983Z,94866.00
2023-05-05T10:46:55.861Z,94862.00
2023-05-05T10:47:56.045Z,94862.00
2023-05-05T10:48:55.959Z,94860.00
2023-05-05T10:49:55.856Z,94858.00
2023-05-05T10:50:55.868Z,94854.00
2023-05-05T10:51:55.887Z,94856.00
2023-05-05T10:52:55.828Z,94856.00
2023-05-05T10:53:55.867Z,94854.00
2023-05-05T10:54:55.847Z,94854.00
2023-05-05T10:55:55.858Z,94850.00
2023-05-05T10:56:56.039Z,94848.00
2023-05-05T10:57:55.953Z,94846.00
2023-05-05T10:58:59.647Z,94844.00
2023-05-05T10:59:56.023Z,94846.00
2023-05-05T11:00:56.065Z,94842.00
2023-05-05T11:01:55.994Z,94840.00
2023-05-05T11:02:56.060Z,94838.00
2023-05-05T11:03:55.993Z,94838.00
2023-05-05T11:04:56.051Z,94836.00
2023-05-05T11:05:55.985Z,94834.00
2023-05-05T11:06:55.986Z,94831.00
2023-05-05T11:07:55.930Z,94827.00
2023-05-05T11:08:55.934Z,94829.00
2023-05-05T11:09:55.967Z,94825.00
2023-05-05T11:10:55.951Z,94825.00
2023-05-05T11:11:55.959Z,94821.00
2023-05-05T11:12:55.988Z,94821.00
2023-05-05T11:13:55.935Z,94819.00
2023-05-05T11:14:55.921Z,94817.00
2023-05-05T11:15:55.903Z,94811.00
2023-05-05T11:16:55.923Z,94809.00
2023-05-05T11:17:55.943Z,94809.00
2023-05-05T11:18:56.339Z,94807.00
2023-05-05T11:19:55.881Z,94803.00
2023-05-05T11:20:56.378Z,94801.00
2023-05-05T11:21:55.867Z,94803.00
2023-05-05T11:22:55.890Z,94799.00
2023-05-05T11:23:55.836Z,94799.00
2023-05-05T11:24:55.805Z,94797.00
2023-05-05T11:25:55.851Z,94793.00
2023-05-05T11:26:55.820Z,94791.00
2023-05-05T11:27:55.855Z,94791.00
2023-05-05T11:28:55.806Z,94791.00
2023-05-05T11:29:55.806Z,94789.00
2023-05-05T11:30:55.900Z,94787.00
2023-05-05T11:31:55.843Z,94785.00
2023-05-05T11:32:55.836Z,94787.00
2023-05-05T11:33:55.755Z,94783.00
2023-05-05T11:34:55.768Z,94785.00
2023-05-05T11:35:55.754Z,94783.00
2023-05-05T11:36:55.774Z,94780.00
2023-05-05T11:37:55.718Z,94776.00
2023-05-05T11:38:55.791Z,94778.00
2023-05-05T11:39:55.716Z,94774.00
2023-05-05T11:40:55.742Z,94774.00
2023-05-05T11:41:55.746Z,94772.00
2023-05-05T11:42:55.751Z,94768.00
2023-05-05T11:43:55.708Z,94766.00
2023-05-05T11:44:55.755Z,94764.00